createdAt,value
2022-11-29T00:01:35.394Z,97973.89
2022-11-29T00:03:38.330Z,97973.75
2022-11-29T00:05:41.135Z,97971.80
2022-11-29T00:07:43.855Z,97976.51
2022-11-29T00:09:46.718Z,97975.53
2022-11-29T00:12:08.579Z,97974.40
2022-11-29T00:14:14.287Z,97973.23
2022-11-29T00:16:20.224Z,97973.13
2022-11-29T00:18:23.045Z,97970.15
2022-11-29T00:20:25.835Z,97975.15
2022-11-29T00:22:29.465Z,97970.56
2022-11-29T00:24:34.612Z,97969.05
2022-11-29T00:26:40.795Z,97969.14
2022-11-29T00:28:43.610Z,97966.14
2022-11-29T00:30:47.480Z,97972.52
2022-11-29T00:32:50.314Z,97971.87
2022-11-29T00:34:53.315Z,97973.73
2022-11-29T00:36:56.102Z,97973.98
2022-11-29T00:38:58.980Z,97972.36
2022-11-29T00:41:01.800Z,97975.56
2022-11-29T00:43:04.653Z,97972.60
2022-11-29T00:45:07.893Z,97967.94
2022-11-29T00:47:10.685Z,97974.41
2022-11-29T00:49:13.634Z,97976.29
2022-11-29T00:51:16.475Z,97976.76
2022-11-29T00:53:19.304Z,97971.14
2022-11-29T00:55:22.136Z,97975.21
2022-11-29T00:57:24.895Z,97972.63
2022-11-29T00:59:27.695Z,97972.60
2022-11-29T01:01:30.520Z,97972.99
2022-11-29T01:03:34.416Z,97972.50
2022-11-29T01:05:37.538Z,97972.38
2022-11-29T01:07:40.526Z,97971.98
2022-11-29T01:09:43.359Z,97970.02
2022-11-29T01:11:46.108Z,97972.19
2022-11-29T01:13:50.330Z,97976.34
2022-11-29T01:15:57.525Z,97968.23
2022-11-29T01:18:00.214Z,97970.84
2022-11-29T01:20:04.937Z,97973.19
2022-11-29T01:22:07.774Z,97970.54
2022-11-29T01:24:10.498Z,97973.02
2022-11-29T01:26:22.819Z,97976.00
2022-11-29T01:28:26.087Z,97967.45
2022-11-29T01:30:28.900Z,97970.73
2022-11-29T01:32:31.730Z,97972.58
2022-11-29T01:34:34.482Z,97969.39
2022-11-29T01:36:37.288Z,97972.20
2022-11-29T01:38:42.395Z,97971.14
2022-11-29T01:40:46.300Z,97972.53
2022-11-29T01:42:49.047Z,97972.80
2022-11-29T01:45:24.806Z,97967.27
2022-11-29T01:47:28.529Z,97963.48
2022-11-29T01:49:41.383Z,97963.06
2022-11-29T01:51:51.706Z,97959.09
2022-11-29T01:53:55.483Z,97960.39
2022-11-29T01:56:03.815Z,97959.98
2022-11-29T01:58:09.087Z,97962.63
2022-11-29T02:00:16.419Z,97961.34
2022-11-29T02:02:31.298Z,97963.80
2022-11-29T02:04:35.903Z,97961.05
2022-11-29T02:06:39.783Z,97961.01
2022-11-29T02:08:43.807Z,97960.30
2022-11-29T02:11:12.250Z,97963.23
2022-11-29T02:13:15.010Z,97965.64
2022-11-29T02:15:28.553Z,97963.75
2022-11-29T02:17:34.480Z,97963.41
2022-11-29T02:20:21.522Z,97962.34
2022-11-29T02:22:44.095Z,97957.52
2022-11-29T02:25:18.152Z,97961.72
2022-11-29T02:27:39.078Z,97964.48
2022-11-29T02:29:57.639Z,97961.87
2022-11-29T02:32:12.301Z,97963.99
2022-11-29T02:34:25.499Z,97967.92
2022-11-29T02:36:34.417Z,97967.52
2022-11-29T02:39:09.487Z,97965.58
2022-11-29T02:41:54.392Z,97969.88
2022-11-29T02:44:17.325Z,97975.30
2022-11-29T02:46:56.484Z,97970.46
2022-11-29T02:49:22.497Z,97971.98
2022-11-29T02:51:52.424Z,97980.42
2022-11-29T02:54:21.727Z,97973.33
2022-11-29T02:56:52.271Z,97974.88
2022-11-29T02:59:24.922Z,97979.86
2022-11-29T03:01:37.371Z,97977.89
2022-11-29T03:03:51.111Z,97977.25
2022-11-29T03:06:05.147Z,97979.30
2022-11-29T03:08:45.215Z,97982.63
2022-11-29T03:11:03.326Z,97978.81
2022-11-29T03:13:13.213Z,97984.72
2022-11-29T03:15:31.482Z,97980.88
2022-11-29T03:17:52.929Z,97985.80
2022-11-29T03:20:03.825Z,97988.42
2022-11-29T03:22:36.267Z,97993.52
2022-11-29T03:25:00.118Z,97993.10
2022-11-29T03:27:09.529Z,97995.06
2022-11-29T03:29:29.592Z,97991.90
2022-11-29T03:31:43.236Z,97990.52
2022-11-29T03:33:59.245Z,97992.26
2022-11-29T03:36:19.239Z,97988.61
2022-11-29T03:38:33.056Z,97990.64
2022-11-29T03:40:45.675Z,97987.66
2022-11-29T03:43:06.420Z,97993.83
2022-11-29T03:45:18.891Z,97997.27
2022-11-29T03:47:29.023Z,97997.52
2022-11-29T03:49:45.026Z,97997.31
2022-11-29T03:52:17.450Z,97995.30
2022-11-29T03:54:28.160Z,98006.41
2022-11-29T03:56:32.522Z,98005.39
2022-11-29T03:58:56.936Z,98007.27
2022-11-29T04:01:12.087Z,98014.52
2022-11-29T04:03:17.956Z,98015.22
2022-11-29T04:05:39.719Z,98017.49
2022-11-29T04:08:17.894Z,98019.21
2022-11-29T04:10:39.384Z,98020.08
2022-11-29T04:13:06.957Z,98019.39
2022-11-29T04:15:28.139Z,98018.05
2022-11-29T04:17:51.691Z,98023.23
2022-11-29T04:20:16.464Z,98021.45
2022-11-29T04:22:45.526Z,98019.21
2022-11-29T04:25:03.822Z,98021.84
2022-11-29T04:27:28.361Z,98023.27
2022-11-29T04:30:08.717Z,98025.17
2022-11-29T04:33:00.834Z,98024.85
2022-11-29T04:35:34.382Z,98030.87
2022-11-29T04:38:11.512Z,98027.11
2022-11-29T04:40:48.718Z,98028.32
2022-11-29T04:43:22.565Z,98032.52
2022-11-29T04:45:57.876Z,98035.16
2022-11-29T04:48:22.770Z,98032.20
2022-11-29T04:50:53.810Z,98037.05
2022-11-29T04:52:56.469Z,98039.98
2022-11-29T04:55:24.988Z,98042.31
2022-11-29T04:58:07.174Z,98037.96
2022-11-29T05:00:18.619Z,98038.24
2022-11-29T05:02:49.737Z,98039.83
2022-11-29T05:05:07.591Z,98037.15
2022-11-29T05:07:51.780Z,98035.14
2022-11-29T05:10:20.410Z,98037.64
2022-11-29T05:12:51.389Z,98041.30
2022-11-29T05:15:34.269Z,98037.85
2022-11-29T05:17:58.767Z,98035.23
2022-11-29T05:20:08.355Z,98032.15
2022-11-29T05:22:31.903Z,98036.19
2022-11-29T05:24:47.065Z,98040.42
2022-11-29T05:27:02.398Z,98041.33
2022-11-29T05:29:09.874Z,98033.52
2022-11-29T05:31:29.479Z,98038.76
2022-11-29T05:33:54.319Z,98043.30
2022-11-29T05:36:16.203Z,98045.04
2022-11-29T05:38:37.149Z,98051.26
2022-11-29T05:40:58.942Z,98053.33
2022-11-29T05:43:04.759Z,98056.65
2022-11-29T05:45:39.132Z,98056.73
2022-11-29T05:48:04.967Z,98058.92
2022-11-29T05:50:19.129Z,98059.23
2022-11-29T05:52:30.037Z,98061.75
2022-11-29T05:54:40.867Z,98065.99
2022-11-29T05:57:01.895Z,98067.85
2022-11-29T05:59:27.617Z,98069.16
2022-11-29T06:02:16.532Z,98071.80
2022-11-29T06:04:31.882Z,98068.70
2022-11-29T06:07:03.843Z,98073.80
2022-11-29T06:09:20.608Z,98073.15
2022-11-29T06:11:41.395Z,98071.37
2022-11-29T06:14:05.766Z,98072.45
2022-11-29T06:16:28.357Z,98075.25
2022-11-29T06:18:49.295Z,98078.46
2022-11-29T06:21:17.098Z,98080.90
2022-11-29T06:24:01.705Z,98075.48
2022-11-29T06:26:24.387Z,98076.17
2022-11-29T06:28:36.718Z,98076.80
2022-11-29T06:31:01.341Z,98078.76
2022-11-29T06:33:20.378Z,98082.77
2022-11-29T06:35:38.523Z,98085.07
2022-11-29T06:37:50.796Z,98085.91
2022-11-29T06:39:55.377Z,98080.52
2022-11-29T06:41:58.128Z,98078.08
2022-11-29T06:44:01.147Z,98087.48
2022-11-29T06:46:14.501Z,98092.13
2022-11-29T06:48:26.240Z,98099.05
2022-11-29T06:51:10.656Z,98101.06
2022-11-29T06:53:26.058Z,98097.45
2022-11-29T06:55:47.529Z,98098.69
2022-11-29T06:58:04.692Z,98098.75
2022-11-29T07:00:19.667Z,98100.22
2022-11-29T07:02:25.572Z,98097.73
2022-11-29T07:04:50.665Z,98097.06
2022-11-29T07:06:54.023Z,98105.42
2022-11-29T07:09:01.620Z,98106.49
2022-11-29T07:11:04.698Z,98110.36
2022-11-29T07:13:07.904Z,98099.52
2022-11-29T07:15:19.916Z,98105.71
2022-11-29T07:17:50.960Z,98108.61
2022-11-29T07:20:31.320Z,98106.07
2022-11-29T07:22:44.746Z,98116.77
2022-11-29T07:24:50.399Z,98112.50
2022-11-29T07:27:15.701Z,98113.10
2022-11-29T07:29:31.941Z,98117.07
2022-11-29T07:31:46.862Z,98117.02
2022-11-29T07:33:49.684Z,98119.06
2022-11-29T07:36:04.682Z,98120.42
2022-11-29T07:38:18.418Z,98126.83
2022-11-29T07:40:53.418Z,98120.30
2022-11-29T07:43:37.008Z,98118.73
2022-11-29T07:45:40.326Z,98124.30
2022-11-29T07:47:43.147Z,98123.94
2022-11-29T07:49:45.960Z,98124.20
2022-11-29T07:51:49.035Z,98122.42
2022-11-29T07:53:51.948Z,98121.69
2022-11-29T07:55:54.859Z,98120.46
2022-11-29T07:57:57.687Z,98122.04
2022-11-29T08:00:00.552Z,98123.88
2022-11-29T08:02:08.788Z,98126.16
2022-11-29T08:04:15.108Z,98121.56
2022-11-29T08:06:25.542Z,98125.80
2022-11-29T08:08:28.781Z,98122.45
2022-11-29T08:10:31.961Z,98121.52
2022-11-29T08:12:35.047Z,98125.19
2022-11-29T08:14:37.940Z,98125.71
2022-11-29T08:16:40.747Z,98128.63
2022-11-29T08:18:44.338Z,98129.13
2022-11-29T08:20:47.299Z,98127.63
2022-11-29T08:22:55.361Z,98131.35
2022-11-29T08:25:00.031Z,98127.23
2022-11-29T08:27:02.855Z,98128.09
2022-11-29T08:29:05.815Z,98131.48
2022-11-29T08:31:10.878Z,98128.38
2022-11-29T08:33:13.719Z,98124.07
2022-11-29T08:35:18.184Z,98126.47
2022-11-29T08:37:21.063Z,98130.19
2022-11-29T08:39:23.938Z,98124.91
2022-11-29T08:41:26.737Z,98127.30
2022-11-29T08:43:30.743Z,98133.25
2022-11-29T08:45:33.655Z,98130.17
2022-11-29T08:47:38.085Z,98132.23
2022-11-29T08:50:00.996Z,98127.40
2022-11-29T08:52:22.564Z,98133.31
2022-11-29T08:54:25.350Z,98130.23
2022-11-29T08:58:50.851Z,98131.70
2022-11-29T09:00:53.643Z,98128.23
2022-11-29T09:03:16.384Z,98127.27
2022-11-29T09:05:19.390Z,98126.17
2022-11-29T09:07:22.332Z,98126.41
2022-11-29T09:09:25.100Z,98120.80
2022-11-29T09:11:29.918Z,98119.26
2022-11-29T09:13:32.724Z,98121.77
2022-11-29T09:15:37.887Z,98121.94
2022-11-29T09:17:40.836Z,98121.85
2022-11-29T09:19:43.593Z,98123.48
2022-11-29T09:21:46.448Z,98129.24
2022-11-29T09:23:49.227Z,98128.56
2022-11-29T09:25:52.114Z,98124.51
2022-11-29T09:27:58.221Z,98119.89
2022-11-29T09:30:00.963Z,98123.42
2022-11-29T09:32:04.323Z,98121.43
2022-11-29T09:34:07.128Z,98118.50
2022-11-29T09:36:11.099Z,98117.11
2022-11-29T09:38:14.752Z,98119.83
2022-11-29T09:40:22.551Z,98120.84
2022-11-29T09:42:35.671Z,98118.77
2022-11-29T09:45:05.168Z,98121.83
2022-11-29T09:47:35.954Z,98115.76
2022-11-29T09:50:16.462Z,98121.13
2022-11-29T09:52:24.850Z,98122.79
2022-11-29T09:54:43.879Z,98117.94
2022-11-29T09:56:51.463Z,98118.08
2022-11-29T09:59:13.661Z,98117.79
2022-11-29T10:01:23.496Z,98115.73
2022-11-29T10:03:37.974Z,98114.17
2022-11-29T10:05:51.268Z,98109.73
2022-11-29T10:08:08.833Z,98110.56
2022-11-29T10:10:23.203Z,98111.98
2022-11-29T10:12:41.380Z,98110.80
2022-11-29T10:14:56.190Z,98111.36
2022-11-29T10:17:39.051Z,98112.10
2022-11-29T10:19:47.452Z,98113.92
2022-11-29T10:21:59.955Z,98114.48
2022-11-29T10:24:18.015Z,98113.94
2022-11-29T10:26:25.889Z,98121.05
2022-11-29T10:28:33.605Z,98118.73
2022-11-29T10:30:36.722Z,98120.29
2022-11-29T10:32:45.545Z,98114.41
2022-11-29T10:34:49.591Z,98112.24
2022-11-29T10:36:59.557Z,98112.33
2022-11-29T10:39:26.210Z,98110.35
2022-11-29T10:41:29.080Z,98111.99
2022-11-29T10:43:32.011Z,98118.10
2022-11-29T10:45:39.679Z,98117.80
2022-11-29T10:47:47.969Z,98117.48
2022-11-29T10:49:50.735Z,98118.52
2022-11-29T10:51:53.852Z,98114.65
2022-11-29T10:54:02.861Z,98108.98
2022-11-29T10:56:19.335Z,98113.27
2022-11-29T10:58:28.299Z,98110.86
2022-11-29T11:00:33.844Z,98112.74
2022-11-29T11:02:40.118Z,98108.23
2022-11-29T11:04:46.394Z,98106.84
2022-11-29T11:06:52.377Z,98111.55
2022-11-29T11:08:57.581Z,98112.09
2022-11-29T11:11:05.288Z,98114.84
2022-11-29T11:13:22.342Z,98109.91
2022-11-29T11:15:25.098Z,98111.77
2022-11-29T11:17:32.823Z,98113.42
2022-11-29T11:19:36.410Z,98112.20
2022-11-29T11:21:39.488Z,98112.59
2022-11-29T11:24:03.274Z,98110.35
2022-11-29T11:26:08.921Z,98115.36
2022-11-29T11:28:16.559Z,98115.27
2022-11-29T11:30:25.637Z,98115.11
2022-11-29T11:32:29.145Z,98117.50
2022-11-29T11:34:34.563Z,98115.60
2022-11-29T11:36:37.418Z,98111.17
2022-11-29T11:38:56.273Z,98110.88
2022-11-29T11:41:17.307Z,98111.66
2022-11-29T11:43:21.966Z,98109.52
2022-11-29T11:45:33.730Z,98110.27
2022-11-29T11:47:43.211Z,98110.80
2022-11-29T11:49:50.304Z,98105.80
2022-11-29T11:51:53.187Z,98103.31
2022-11-29T11:53:57.517Z,98106.08
2022-11-29T11:56:01.828Z,98104.98
2022-11-29T11:58:13.618Z,98106.76
2022-11-29T12:03:02.456Z,98106.61
2022-11-29T12:05:13.465Z,98109.89
2022-11-29T12:07:51.985Z,98109.52
2022-11-29T12:09:56.646Z,98107.92
2022-11-29T12:12:18.003Z,98110.35
2022-11-29T12:14:50.198Z,98111.64
2022-11-29T12:17:03.404Z,98118.30
2022-11-29T12:19:18.154Z,98116.14
2022-11-29T12:21:26.421Z,98116.09
2022-11-29T12:23:40.177Z,98114.22
2022-11-29T12:26:06.058Z,98112.83
2022-11-29T12:28:19.813Z,98115.89
2022-11-29T12:30:23.471Z,98121.86
2022-11-29T12:32:36.469Z,98121.83
2022-11-29T12:35:18.842Z,98120.36
2022-11-29T12:37:50.173Z,98120.31
2022-11-29T12:40:22.358Z,98122.56
2022-11-29T12:42:46.510Z,98121.29
2022-11-29T12:45:26.965Z,98121.91
2022-11-29T12:47:51.555Z,98123.44
2022-11-29T12:50:16.346Z,98124.89
2022-11-29T12:52:37.420Z,98124.45
2022-11-29T12:54:46.562Z,98117.90
2022-11-29T12:57:01.870Z,98120.95
2022-11-29T12:59:34.208Z,98120.77
2022-11-29T13:02:00.684Z,98120.27
2022-11-29T13:04:22.332Z,98118.03
2022-11-29T13:06:36.505Z,98118.30
2022-11-29T13:08:54.208Z,98120.57
2022-11-29T13:11:36.583Z,98121.23
2022-11-29T13:13:43.186Z,98123.27
2022-11-29T13:16:29.238Z,98118.69
2022-11-29T13:18:48.800Z,98123.10
2022-11-29T13:21:07.821Z,98124.91
2022-11-29T13:23:46.000Z,98127.61
2022-11-29T13:25:54.606Z,98130.02
2022-11-29T13:28:17.982Z,98131.72
2022-11-29T13:30:21.050Z,98134.77
2022-11-29T13:32:37.388Z,98136.17
2022-11-29T13:34:45.600Z,98139.45
2022-11-29T13:36:54.221Z,98137.69
2022-11-29T13:39:10.602Z,98139.48
2022-11-29T13:41:35.473Z,98143.77
2022-11-29T13:44:13.478Z,98143.69
2022-11-29T13:46:49.925Z,98145.10
2022-11-29T13:48:54.534Z,98146.63
2022-11-29T13:50:58.074Z,98148.67
2022-11-29T13:53:11.880Z,98152.89
2022-11-29T13:55:15.514Z,98152.46
2022-11-29T13:57:18.437Z,98153.60
2022-11-29T13:59:32.882Z,98156.36
2022-11-29T14:01:45.521Z,98158.39
2022-11-29T14:04:14.611Z,98159.84
2022-11-29T14:06:38.096Z,98157.23
2022-11-29T14:09:17.436Z,98156.94
2022-11-29T14:11:07.133Z,98158.10
2022-11-29T14:13:15.543Z,98166.22
2022-11-29T14:15:29.461Z,98167.12
2022-11-29T14:17:45.563Z,98165.73
2022-11-29T14:19:48.471Z,98168.59
2022-11-29T14:22:03.039Z,98173.49
2022-11-29T14:24:34.035Z,98171.73
2022-11-29T14:26:36.909Z,98175.20
2022-11-29T14:28:40.223Z,98170.86
2022-11-29T14:30:51.383Z,98172.02
2022-11-29T14:33:18.509Z,98170.92
2022-11-29T14:35:49.745Z,98170.75
2022-11-29T14:38:04.347Z,98176.46
2022-11-29T14:40:26.067Z,98173.59
2022-11-29T14:42:29.627Z,98172.88
2022-11-29T14:44:34.495Z,98174.21
2022-11-29T14:46:37.568Z,98172.60
2022-11-29T14:48:58.751Z,98172.88
2022-11-29T14:51:09.158Z,98178.08
2022-11-29T14:53:48.913Z,98179.31
2022-11-29T14:55:52.100Z,98182.36
2022-11-29T14:58:06.388Z,98181.07
2022-11-29T15:00:14.274Z,98182.09
2022-11-29T15:02:41.360Z,98178.83
2022-11-29T15:04:45.124Z,98186.16
2022-11-29T15:06:53.121Z,98185.56
2022-11-29T15:09:03.477Z,98191.92
2022-11-29T15:11:20.022Z,98195.39
2022-11-29T15:13:29.168Z,98195.17
2022-11-29T15:15:36.720Z,98199.73
2022-11-29T15:17:55.559Z,98197.88
2022-11-29T15:20:04.397Z,98197.17
2022-11-29T15:22:24.215Z,98193.16
2022-11-29T15:24:28.939Z,98196.79
2022-11-29T15:26:32.805Z,98196.16
2022-11-29T15:28:35.681Z,98205.91
2022-11-29T15:30:40.774Z,98205.24
2022-11-29T15:32:43.726Z,98210.60
2022-11-29T15:34:51.941Z,98209.13
2022-11-29T15:36:54.913Z,98213.76
2022-11-29T15:38:59.265Z,98213.50
2022-11-29T15:41:03.017Z,98215.66
2022-11-29T15:43:35.140Z,98216.10
2022-11-29T15:45:39.347Z,98216.30
2022-11-29T15:47:43.019Z,98219.05
2022-11-29T15:49:46.234Z,98219.91
2022-11-29T15:51:56.088Z,98219.78
2022-11-29T15:54:13.330Z,98219.21
2022-11-29T15:56:42.895Z,98217.98
2022-11-29T15:58:47.918Z,98216.44
2022-11-29T16:00:52.461Z,98218.03
2022-11-29T16:02:59.793Z,98220.13
2022-11-29T16:05:16.495Z,98221.60
2022-11-29T16:07:22.235Z,98222.96
2022-11-29T16:09:48.314Z,98221.12
2022-11-29T16:11:51.980Z,98221.84
2022-11-29T16:14:12.693Z,98221.08
2022-11-29T16:16:23.102Z,98217.13
2022-11-29T16:18:25.989Z,98222.16
2022-11-29T16:20:29.083Z,98224.33
2022-11-29T16:22:32.595Z,98227.84
2022-11-29T16:24:38.223Z,98229.84
2022-11-29T16:26:44.594Z,98224.41
2022-11-29T16:28:50.208Z,98229.66
2022-11-29T16:30:52.997Z,98231.63
2022-11-29T16:32:59.348Z,98230.67
2022-11-29T16:35:27.514Z,98232.42
2022-11-29T16:37:37.012Z,98232.08
2022-11-29T16:39:40.202Z,98231.42
2022-11-29T16:41:43.007Z,98230.38
2022-11-29T16:43:53.938Z,98232.81
2022-11-29T16:46:22.289Z,98233.16
2022-11-29T16:48:27.682Z,98234.45
2022-11-29T16:50:32.851Z,98233.08
2022-11-29T16:52:35.620Z,98240.05
2022-11-29T16:54:38.397Z,98240.83
2022-11-29T16:56:41.231Z,98239.98
2022-11-29T16:59:25.304Z,98237.98
2022-11-29T17:01:23.778Z,98243.52
2022-11-29T17:03:31.259Z,98244.66
2022-11-29T17:05:34.121Z,98248.73
2022-11-29T17:07:39.524Z,98252.06
2022-11-29T17:09:43.109Z,98257.83
2022-11-29T17:11:45.933Z,98260.98
2022-11-29T17:13:52.904Z,98260.67
2022-11-29T17:15:55.831Z,98261.64
2022-11-29T17:17:58.708Z,98261.66
2022-11-29T17:20:01.626Z,98260.42
2022-11-29T17:22:04.587Z,98264.48
2022-11-29T17:24:11.745Z,98264.59
2022-11-29T17:26:15.654Z,98268.83
2022-11-29T17:28:18.499Z,98267.48
2022-11-29T17:30:21.320Z,98270.98
2022-11-29T17:32:26.898Z,98271.38
2022-11-29T17:34:30.352Z,98271.67
2022-11-29T17:36:33.561Z,98273.28
2022-11-29T17:38:37.049Z,98272.65
2022-11-29T17:40:40.181Z,98273.74
2022-11-29T17:42:42.978Z,98272.72
2022-11-29T17:44:45.781Z,98271.45
2022-11-29T17:46:48.576Z,98276.07
2022-11-29T17:48:52.295Z,98280.56
2022-11-29T17:51:00.106Z,98276.91
2022-11-29T17:53:03.210Z,98278.59
2022-11-29T17:55:06.619Z,98279.09
2022-11-29T17:57:09.511Z,98276.30
2022-11-29T17:59:12.348Z,98280.56
2022-11-29T18:01:19.348Z,98277.55
2022-11-29T18:03:22.146Z,98279.58
2022-11-29T18:05:26.226Z,98281.51
2022-11-29T18:07:30.908Z,98282.22
2022-11-29T18:09:33.929Z,98283.78
2022-11-29T18:11:47.112Z,98286.80
2022-11-29T18:13:52.999Z,98287.98
2022-11-29T18:16:06.954Z,98287.73
2022-11-29T18:18:10.798Z,98284.36
2022-11-29T18:20:14.461Z,98286.10
2022-11-29T18:22:17.237Z,98286.73
2022-11-29T18:24:20.198Z,98289.31
2022-11-29T18:26:24.792Z,98292.79
2022-11-29T18:28:29.582Z,98294.44
2022-11-29T18:30:32.564Z,98291.36
2022-11-29T18:32:35.409Z,98287.27
2022-11-29T18:34:38.244Z,98287.77
2022-11-29T18:36:43.802Z,98291.61
2022-11-29T18:38:47.752Z,98290.88
2022-11-29T18:40:50.742Z,98290.42
2022-11-29T18:42:53.779Z,98291.16
2022-11-29T18:44:58.849Z,98289.79
2022-11-29T18:47:03.951Z,98294.17
2022-11-29T18:49:09.108Z,98292.63
2022-11-29T18:51:18.320Z,98295.73
2022-11-29T18:53:21.168Z,98296.45
2022-11-29T18:55:24.995Z,98294.75
2022-11-29T18:57:33.541Z,98298.14
2022-11-29T18:59:36.854Z,98300.86
2022-11-29T19:01:42.849Z,98298.50
2022-11-29T19:03:50.546Z,98302.56
2022-11-29T19:05:54.512Z,98297.34
2022-11-29T19:07:57.397Z,98295.28
2022-11-29T19:10:00.254Z,98296.66
2022-11-29T19:12:04.051Z,98299.79
2022-11-29T19:14:11.697Z,98299.98
2022-11-29T19:16:18.162Z,98305.00
2022-11-29T19:18:22.308Z,98306.02
2022-11-29T19:20:25.065Z,98307.02
2022-11-29T19:22:29.532Z,98306.59
2022-11-29T19:24:32.379Z,98310.77
2022-11-29T19:26:35.204Z,98312.88
2022-11-29T19:28:39.940Z,98315.90
2022-11-29T19:30:42.933Z,98312.94
2022-11-29T19:32:45.743Z,98316.40
2022-11-29T19:34:48.503Z,98315.71
2022-11-29T19:36:51.243Z,98321.55
2022-11-29T19:38:54.742Z,98317.11
2022-11-29T19:40:57.708Z,98320.80
2022-11-29T19:43:00.556Z,98324.19
2022-11-29T19:45:19.624Z,98328.10
2022-11-29T19:47:22.542Z,98327.64
2022-11-29T19:49:25.379Z,98327.67
2022-11-29T19:51:30.125Z,98329.24
2022-11-29T19:53:33.852Z,98331.81
2022-11-29T19:55:43.799Z,98328.55
2022-11-29T19:57:47.101Z,98331.65
2022-11-29T19:59:49.811Z,98332.84
2022-11-29T20:01:52.599Z,98336.90
2022-11-29T20:03:56.640Z,98335.30
2022-11-29T20:06:00.140Z,98335.95
2022-11-29T20:08:03.003Z,98332.43
2022-11-29T20:10:08.161Z,98338.22
2022-11-29T20:12:11.118Z,98340.22
2022-11-29T20:14:14.735Z,98341.89
2022-11-29T20:16:19.329Z,98341.12
2022-11-29T20:18:22.164Z,98343.74
2022-11-29T20:20:25.168Z,98344.93
2022-11-29T20:22:28.084Z,98346.98
2022-11-29T20:24:35.330Z,98347.54
2022-11-29T20:26:45.824Z,98350.27
2022-11-29T20:28:48.618Z,98352.23
2022-11-29T20:30:51.505Z,98351.64
2022-11-29T20:32:54.603Z,98353.27
2022-11-29T20:34:59.220Z,98353.40
2022-11-29T20:37:21.266Z,98349.84
2022-11-29T20:39:51.981Z,98351.13
2022-11-29T20:42:25.976Z,98352.20
2022-11-29T20:44:43.111Z,98350.60
2022-11-29T20:46:46.097Z,98351.77
2022-11-29T20:48:49.636Z,98354.21
2022-11-29T20:51:02.560Z,98357.36
2022-11-29T20:53:43.439Z,98363.61
2022-11-29T20:55:48.515Z,98362.88
2022-11-29T20:57:51.417Z,98364.24
2022-11-29T20:59:54.362Z,98362.98
2022-11-29T21:01:57.697Z,98361.05
2022-11-29T21:04:00.747Z,98360.94
2022-11-29T21:06:05.756Z,98359.84
2022-11-29T21:08:08.563Z,98360.15
2022-11-29T21:10:11.957Z,98356.91
2022-11-29T21:12:15.296Z,98359.73
2022-11-29T21:14:18.553Z,98361.67
2022-11-29T21:16:28.490Z,98361.90
2022-11-29T21:18:31.805Z,98362.54
2022-11-29T21:20:34.760Z,98360.50
2022-11-29T21:22:51.842Z,98363.20
2022-11-29T21:24:57.229Z,98363.66
2022-11-29T21:27:00.302Z,98362.30
2022-11-29T21:29:15.091Z,98361.23
2022-11-29T21:31:19.138Z,98361.05
2022-11-29T21:33:22.303Z,98360.62
2022-11-29T21:35:25.129Z,98362.31
2022-11-29T21:37:30.952Z,98364.91
2022-11-29T21:39:34.188Z,98365.83
2022-11-29T21:41:37.037Z,98368.27
2022-11-29T21:44:05.401Z,98367.54
2022-11-29T21:46:03.495Z,98365.10
2022-11-29T21:48:29.321Z,98364.20
2022-11-29T21:50:32.036Z,98363.07
2022-11-29T21:52:34.868Z,98360.91
2022-11-29T21:54:37.684Z,98367.05
2022-11-29T21:56:40.616Z,98360.09
2022-11-29T21:58:43.468Z,98362.83
2022-11-29T22:00:46.247Z,98361.98
2022-11-29T22:02:49.081Z,98364.96
2022-11-29T22:04:52.022Z,98369.48
2022-11-29T22:06:55.016Z,98369.16
2022-11-29T22:09:05.565Z,98366.81
2022-11-29T22:11:14.388Z,98374.09
2022-11-29T22:13:17.164Z,98376.60
2022-11-29T22:15:24.492Z,98372.55
2022-11-29T22:17:28.064Z,98378.06
2022-11-29T22:19:34.132Z,98372.93
2022-11-29T22:21:37.127Z,98372.65
2022-11-29T22:23:40.197Z,98371.92
2022-11-29T22:25:42.920Z,98373.83
2022-11-29T22:27:45.674Z,98373.58
2022-11-29T22:29:49.037Z,98374.11
2022-11-29T22:31:54.766Z,98371.72
2022-11-29T22:33:57.689Z,98374.68
2022-11-29T22:36:09.583Z,98373.65
2022-11-29T22:38:12.414Z,98370.84
2022-11-29T22:40:15.989Z,98370.84
2022-11-29T22:42:18.772Z,98368.40
2022-11-29T22:44:21.990Z,98368.21
2022-11-29T22:46:26.888Z,98366.93
2022-11-29T22:48:33.006Z,98367.41
2022-11-29T22:50:38.396Z,98369.41
2022-11-29T22:52:41.158Z,98367.46
2022-11-29T22:54:44.062Z,98371.50
2022-11-29T22:56:47.478Z,98369.94
2022-11-29T22:58:50.766Z,98365.58
2022-11-29T23:01:01.166Z,98359.11
2022-11-29T23:03:03.962Z,98358.60
2022-11-29T23:05:06.923Z,98354.46
2022-11-29T23:07:09.705Z,98354.09
2022-11-29T23:09:19.972Z,98351.28
2022-11-29T23:11:28.367Z,98357.25
2022-11-29T23:13:34.148Z,98361.48
2022-11-29T23:15:36.955Z,98360.77
2022-11-29T23:17:39.857Z,98362.02
2022-11-29T23:19:42.652Z,98361.08
2022-11-29T23:21:46.326Z,98366.89
2022-11-29T23:23:54.647Z,98366.95
2022-11-29T23:25:59.502Z,98367.94
2022-11-29T23:28:02.311Z,98365.00
2022-11-29T23:30:06.394Z,98365.41
2022-11-29T23:32:09.218Z,98368.48
2022-11-29T23:34:12.362Z,98367.29
2022-11-29T23:36:16.923Z,98368.75
2022-11-29T23:38:19.721Z,98370.77
2022-11-29T23:40:22.511Z,98370.96
2022-11-29T23:42:25.728Z,98372.07
2022-11-29T23:44:28.544Z,98372.94
2022-11-29T23:46:32.128Z,98375.19
2022-11-29T23:48:35.039Z,98370.73
2022-11-29T23:50:37.818Z,98369.18
2022-11-29T23:52:40.567Z,98368.92
2022-11-29T23:54:43.468Z,98371.66
2022-11-29T23:56:46.364Z,98371.70
2022-11-29T23:58:49.209Z,98369.64
